sensor_id;sensor_type;location;lat;lon;timestamp;temperature;humidity
22108;DHT22;11220;48.812;9.128;2023-11-19T00:00:09;18.20;85.50
22108;DHT22;11220;48.812;9.128;2023-11-19T00:02:39;18.20;85.50
22108;DHT22;11220;48.812;9.128;2023-11-19T00:05:05;18.20;85.60
22108;DHT22;11220;48.812;9.128;2023-11-19T00:07:37;18.20;85.70
22108;DHT22;11220;48.812;9.128;2023-11-19T00:10:10;18.20;85.90
22108;DHT22;11220;48.812;9.128;2023-11-19T00:12:36;18.20;85.90
22108;DHT22;11220;48.812;9.128;2023-11-19T00:15:02;18.20;85.90
22108;DHT22;11220;48.812;9.128;2023-11-19T00:17:28;18.20;86.80
22108;DHT22;11220;48.812;9.128;2023-11-19T00:19:54;18.20;85.90
22108;DHT22;11220;48.812;9.128;2023-11-19T00:22:20;18.20;85.90
22108;DHT22;11220;48.812;9.128;2023-11-19T00:24:47;18.20;86.00
22108;DHT22;11220;48.812;9.128;2023-11-19T00:27:12;18.30;86.00
22108;DHT22;11220;48.812;9.128;2023-11-19T00:29:38;18.20;85.90
22108;DHT22;11220;48.812;9.128;2023-11-19T00:32:03;18.20;85.90
22108;DHT22;11220;48.812;9.128;2023-11-19T00:34:30;18.20;86.00
22108;DHT22;11220;48.812;9.128;2023-11-19T00:36:56;18.20;85.90
22108;DHT22;11220;48.812;9.128;2023-11-19T00:39:22;18.20;85.90
22108;DHT22;11220;48.812;9.128;2023-11-19T00:41:48;18.20;85.90
22108;DHT22;11220;48.812;9.128;2023-11-19T00:44:13;18.20;85.90
22108;DHT22;11220;48.812;9.128;2023-11-19T00:46:39;18.30;85.90
22108;DHT22;11220;48.812;9.128;2023-11-19T00:49:05;18.20;85.90
22108;DHT22;11220;48.812;9.128;2023-11-19T00:51:30;18.20;85.90
22108;DHT22;11220;48.812;9.128;2023-11-19T00:53:57;18.20;86.90
22108;DHT22;11220;48.812;9.128;2023-11-19T00:56:23;18.20;86.00
22108;DHT22;11220;48.812;9.128;2023-11-19T00:58:48;18.20;85.90
22108;DHT22;11220;48.812;9.128;2023-11-19T01:01:14;18.20;85.90
22108;DHT22;11220;48.812;9.128;2023-11-19T01:03:39;18.20;85.90
22108;DHT22;11220;48.812;9.128;2023-11-19T01:06:05;18.20;85.80
22108;DHT22;11220;48.812;9.128;2023-11-19T01:08:31;18.20;85.80
22108;DHT22;11220;48.812;9.128;2023-11-19T01:10:57;18.20;85.90
22108;DHT22;11220;48.812;9.128;2023-11-19T01:13:22;18.60;86.10
22108;DHT22;11220;48.812;9.128;2023-11-19T01:15:48;18.30;86.00
22108;DHT22;11220;48.812;9.128;2023-11-19T01:18:13;18.20;85.90
22108;DHT22;11220;48.812;9.128;2023-11-19T01:20:39;18.20;85.90
22108;DHT22;11220;48.812;9.128;2023-11-19T01:23:04;18.10;85.80
22108;DHT22;11220;48.812;9.128;2023-11-19T01:25:30;18.20;85.90
22108;DHT22;11220;48.812;9.128;2023-11-19T01:27:56;18.20;85.90
22108;DHT22;11220;48.812;9.128;2023-11-19T01:30:24;18.10;85.80
22108;DHT22;11220;48.812;9.128;2023-11-19T01:32:49;18.10;85.80
22108;DHT22;11220;48.812;9.128;2023-11-19T01:35:15;18.10;85.80
22108;DHT22;11220;48.812;9.128;2023-11-19T01:37:41;18.10;85.90
22108;DHT22;11220;48.812;9.128;2023-11-19T01:40:06;18.10;85.80
22108;DHT22;11220;48.812;9.128;2023-11-19T01:42:40;18.10;85.90
22108;DHT22;11220;48.812;9.128;2023-11-19T01:45:06;18.10;85.80
22108;DHT22;11220;48.812;9.128;2023-11-19T01:47:35;18.10;85.80
22108;DHT22;11220;48.812;9.128;2023-11-19T01:50:01;18.30;86.00
22108;DHT22;11220;48.812;9.128;2023-11-19T01:52:32;18.10;85.80
22108;DHT22;11220;48.812;9.128;2023-11-19T01:54:59;18.10;85.80
22108;DHT22;11220;48.812;9.128;2023-11-19T01:57:25;18.10;86.80
22108;DHT22;11220;48.812;9.128;2023-11-19T01:59:51;18.30;86.00
22108;DHT22;11220;48.812;9.128;2023-11-19T02:02:17;18.10;85.90
22108;DHT22;11220;48.812;9.128;2023-11-19T02:04:47;18.10;85.90
22108;DHT22;11220;48.812;9.128;2023-11-19T02:07:13;18.40;86.10
22108;DHT22;11220;48.812;9.128;2023-11-19T02:09:42;18.10;85.90
22108;DHT22;11220;48.812;9.128;2023-11-19T02:12:08;18.10;85.90
22108;DHT22;11220;48.812;9.128;2023-11-19T02:14:34;18.10;85.80
22108;DHT22;11220;48.812;9.128;2023-11-19T02:17:00;18.10;85.90
22108;DHT22;11220;48.812;9.128;2023-11-19T02:19:26;18.10;85.90
22108;DHT22;11220;48.812;9.128;2023-11-19T02:21:51;18.10;86.80
22108;DHT22;11220;48.812;9.128;2023-11-19T02:24:20;18.00;85.80
22108;DHT22;11220;48.812;9.128;2023-11-19T02:27:10;18.10;85.90
22108;DHT22;11220;48.812;9.128;2023-11-19T02:29:39;18.00;85.90
22108;DHT22;11220;48.812;9.128;2023-11-19T02:32:05;18.10;85.90
22108;DHT22;11220;48.812;9.128;2023-11-19T02:34:30;18.00;85.90
22108;DHT22;11220;48.812;9.128;2023-11-19T02:36:56;18.00;85.90
22108;DHT22;11220;48.812;9.128;2023-11-19T02:39:22;18.00;85.90
22108;DHT22;11220;48.812;9.128;2023-11-19T02:41:47;18.00;86.00
22108;DHT22;11220;48.812;9.128;2023-11-19T02:44:16;18.00;86.00
22108;DHT22;11220;48.812;9.128;2023-11-19T02:46:41;18.10;86.00
22108;DHT22;11220;48.812;9.128;2023-11-19T02:49:07;18.00;86.00
22108;DHT22;11220;48.812;9.128;2023-11-19T02:51:33;18.10;86.10
22108;DHT22;11220;48.812;9.128;2023-11-19T02:54:00;18.00;86.00
22108;DHT22;11220;48.812;9.128;2023-11-19T02:56:25;18.00;86.00
22108;DHT22;11220;48.812;9.128;2023-11-19T02:58:51;18.00;86.00
22108;DHT22;11220;48.812;9.128;2023-11-19T03:01:24;18.00;86.00
22108;DHT22;11220;48.812;9.128;2023-11-19T03:03:56;18.00;86.10
22108;DHT22;11220;48.812;9.128;2023-11-19T03:06:23;18.00;86.00
22108;DHT22;11220;48.812;9.128;2023-11-19T03:08:48;18.00;86.10
22108;DHT22;11220;48.812;9.128;2023-11-19T03:11:14;18.10;86.10
22108;DHT22;11220;48.812;9.128;2023-11-19T03:13:40;18.00;87.00
22108;DHT22;11220;48.812;9.128;2023-11-19T03:16:06;18.00;86.10
22108;DHT22;11220;48.812;9.128;2023-11-19T03:18:32;18.00;86.10
22108;DHT22;11220;48.812;9.128;2023-11-19T03:20:58;18.00;86.10
22108;DHT22;11220;48.812;9.128;2023-11-19T03:23:24;18.00;86.10
22108;DHT22;11220;48.812;9.128;2023-11-19T03:25:53;18.00;86.10
22108;DHT22;11220;48.812;9.128;2023-11-19T03:28:18;18.00;86.10
22108;DHT22;11220;48.812;9.128;2023-11-19T03:30:44;18.00;86.10
22108;DHT22;11220;48.812;9.128;2023-11-19T03:33:09;18.00;86.20
22108;DHT22;11220;48.812;9.128;2023-11-19T03:35:35;18.00;86.20
22108;DHT22;11220;48.812;9.128;2023-11-19T03:38:00;18.00;86.20
22108;DHT22;11220;48.812;9.128;2023-11-19T03:40:26;18.00;86.20
22108;DHT22;11220;48.812;9.128;2023-11-19T03:42:52;17.90;86.10
22108;DHT22;11220;48.812;9.128;2023-11-19T03:45:17;18.00;86.20
22108;DHT22;11220;48.812;9.128;2023-11-19T03:47:43;18.00;86.20
22108;DHT22;11220;48.812;9.128;2023-11-19T03:50:08;17.90;86.20
22108;DHT22;11220;48.812;9.128;2023-11-19T03:52:35;18.00;86.20
22108;DHT22;11220;48.812;9.128;2023-11-19T03:55:00;17.90;86.10
22108;DHT22;11220;48.812;9.128;2023-11-19T03:57:27;17.90;86.20
22108;DHT22;11220;48.812;9.128;2023-11-19T03:59:53;17.90;86.10
22108;DHT22;11220;48.812;9.128;2023-11-19T04:02:18;18.00;86.20
22108;DHT22;11220;48.812;9.128;2023-11-19T04:04:44;17.90;86.20
22108;DHT22;11220;48.812;9.128;2023-11-19T04:07:10;17.90;86.10
22108;DHT22;11220;48.812;9.128;2023-11-19T04:09:35;17.90;86.10
22108;DHT22;11220;48.812;9.128;2023-11-19T04:12:03;17.90;86.10
22108;DHT22;11220;48.812;9.128;2023-11-19T04:14:28;17.90;86.20
22108;DHT22;11220;48.812;9.128;2023-11-19T04:16:54;17.90;86.20
22108;DHT22;11220;48.812;9.128;2023-11-19T04:19:20;17.90;86.20
22108;DHT22;11220;48.812;9.128;2023-11-19T04:21:45;17.90;86.20
22108;DHT22;11220;48.812;9.128;2023-11-19T04:24:11;17.90;86.30
22108;DHT22;11220;48.812;9.128;2023-11-19T04:26:45;17.90;86.20
22108;DHT22;11220;48.812;9.128;2023-11-19T04:29:15;17.90;86.20
22108;DHT22;11220;48.812;9.128;2023-11-19T04:31:42;17.90;86.20
22108;DHT22;11220;48.812;9.128;2023-11-19T04:34:08;17.90;86.20
22108;DHT22;11220;48.812;9.128;2023-11-19T04:36:34;17.90;86.20
22108;DHT22;11220;48.812;9.128;2023-11-19T04:39:00;18.00;86.30
22108;DHT22;11220;48.812;9.128;2023-11-19T04:41:26;17.90;86.20
22108;DHT22;11220;48.812;9.128;2023-11-19T04:43:53;18.00;86.30
22108;DHT22;11220;48.812;9.128;2023-11-19T04:46:19;17.90;86.20
22108;DHT22;11220;48.812;9.128;2023-11-19T04:48:45;18.00;86.30
22108;DHT22;11220;48.812;9.128;2023-11-19T04:51:10;17.90;86.30
22108;DHT22;11220;48.812;9.128;2023-11-19T04:53:35;17.90;86.20
22108;DHT22;11220;48.812;9.128;2023-11-19T04:56:06;17.90;86.30
22108;DHT22;11220;48.812;9.128;2023-11-19T04:58:32;17.90;86.20
22108;DHT22;11220;48.812;9.128;2023-11-19T05:00:59;17.90;86.30
22108;DHT22;11220;48.812;9.128;2023-11-19T05:03:24;17.90;86.30
22108;DHT22;11220;48.812;9.128;2023-11-19T05:05:50;17.90;86.30
22108;DHT22;11220;48.812;9.128;2023-11-19T05:08:15;17.90;86.30
22108;DHT22;11220;48.812;9.128;2023-11-19T05:10:41;18.50;86.60
22108;DHT22;11220;48.812;9.128;2023-11-19T05:13:06;17.90;86.30
22108;DHT22;11220;48.812;9.128;2023-11-19T05:15:32;17.90;86.30
22108;DHT22;11220;48.812;9.128;2023-11-19T05:17:58;18.00;86.40
22108;DHT22;11220;48.812;9.128;2023-11-19T05:20:24;17.90;86.30
22108;DHT22;11220;48.812;9.128;2023-11-19T05:22:49;17.90;86.30
22108;DHT22;11220;48.812;9.128;2023-11-19T05:25:16;17.90;86.30
22108;DHT22;11220;48.812;9.128;2023-11-19T05:27:42;17.90;86.40
22108;DHT22;11220;48.812;9.128;2023-11-19T05:30:07;18.10;86.50
22108;DHT22;11220;48.812;9.128;2023-11-19T05:32:33;17.90;86.40
22108;DHT22;11220;48.812;9.128;2023-11-19T05:34:59;17.90;86.40
22108;DHT22;11220;48.812;9.128;2023-11-19T05:37:25;17.90;86.40
22108;DHT22;11220;48.812;9.128;2023-11-19T05:39:51;17.90;86.40
22108;DHT22;11220;48.812;9.128;2023-11-19T05:42:16;17.90;86.30
22108;DHT22;11220;48.812;9.128;2023-11-19T05:44:42;17.90;86.30
22108;DHT22;11220;48.812;9.128;2023-11-19T05:47:08;17.90;86.40
22108;DHT22;11220;48.812;9.128;2023-11-19T05:49:33;17.90;86.30
22108;DHT22;11220;48.812;9.128;2023-11-19T05:52:00;17.90;86.40
22108;DHT22;11220;48.812;9.128;2023-11-19T05:54:28;17.90;86.40
22108;DHT22;11220;48.812;9.128;2023-11-19T05:56:53;17.90;86.40
22108;DHT22;11220;48.812;9.128;2023-11-19T05:59:20;17.90;86.40
22108;DHT22;11220;48.812;9.128;2023-11-19T06:01:45;17.90;86.50
22108;DHT22;11220;48.812;9.128;2023-11-19T06:04:12;18.00;86.50
22108;DHT22;11220;48.812;9.128;2023-11-19T06:06:37;18.00;86.60
22108;DHT22;11220;48.812;9.128;2023-11-19T06:09:03;18.00;86.60
22108;DHT22;11220;48.812;9.128;2023-11-19T06:11:29;18.10;86.70
22108;DHT22;11220;48.812;9.128;2023-11-19T06:13:55;18.10;86.70
22108;DHT22;11220;48.812;9.128;2023-11-19T06:16:21;18.10;86.70
22108;DHT22;11220;48.812;9.128;2023-11-19T06:18:47;18.10;86.70
22108;DHT22;11220;48.812;9.128;2023-11-19T06:21:12;18.10;86.70
22108;DHT22;11220;48.812;9.128;2023-11-19T06:23:38;18.10;86.70
22108;DHT22;11220;48.812;9.128;2023-11-19T06:26:04;19.20;87.40
22108;DHT22;11220;48.812;9.128;2023-11-19T06:28:30;18.20;86.80
22108;DHT22;11220;48.812;9.128;2023-11-19T06:30:56;18.20;86.70
22108;DHT22;11220;48.812;9.128;2023-11-19T06:33:23;18.30;86.80
22108;DHT22;11220;48.812;9.128;2023-11-19T06:35:49;18.30;86.70
22108;DHT22;11220;48.812;9.128;2023-11-19T06:38:15;18.30;86.70
22108;DHT22;11220;48.812;9.128;2023-11-19T06:40:40;18.30;86.70
22108;DHT22;11220;48.812;9.128;2023-11-19T06:43:06;18.40;86.70
22108;DHT22;11220;48.812;9.128;2023-11-19T06:45:34;18.40;86.60
22108;DHT22;11220;48.812;9.128;2023-11-19T06:48:02;18.30;86.50
22108;DHT22;11220;48.812;9.128;2023-11-19T06:50:29;18.50;86.50
22108;DHT22;11220;48.812;9.128;2023-11-19T06:52:54;18.50;86.50
22108;DHT22;11220;48.812;9.128;2023-11-19T06:55:20;18.50;86.50
22108;DHT22;11220;48.812;9.128;2023-11-19T06:57:45;18.50;86.50
22108;DHT22;11220;48.812;9.128;2023-11-19T07:00:12;19.50;87.90
22108;DHT22;11220;48.812;9.128;2023-11-19T07:02:37;18.50;86.30
22108;DHT22;11220;48.812;9.128;2023-11-19T07:05:03;18.50;86.30
22108;DHT22;11220;48.812;9.128;2023-11-19T07:07:31;18.50;86.40
22108;DHT22;11220;48.812;9.128;2023-11-19T07:09:57;18.90;86.40
22108;DHT22;11220;48.812;9.128;2023-11-19T07:12:22;19.10;86.60
22108;DHT22;11220;48.812;9.128;2023-11-19T07:14:48;18.50;86.70
22108;DHT22;11220;48.812;9.128;2023-11-19T07:17:13;18.60;86.50
22108;DHT22;11220;48.812;9.128;2023-11-19T07:19:40;19.10;86.90
22108;DHT22;11220;48.812;9.128;2023-11-19T07:22:06;19.50;87.10
22108;DHT22;11220;48.812;9.128;2023-11-19T07:24:32;19.80;87.40
22108;DHT22;11220;48.812;9.128;2023-11-19T07:26:58;19.50;87.10
22108;DHT22;11220;48.812;9.128;2023-11-19T07:29:23;18.60;86.40
22108;DHT22;11220;48.812;9.128;2023-11-19T07:31:49;19.00;86.70
22108;DHT22;11220;48.812;9.128;2023-11-19T07:34:15;19.60;86.80
22108;DHT22;11220;48.812;9.128;2023-11-19T07:36:40;18.90;86.70
22108;DHT22;11220;48.812;9.128;2023-11-19T07:39:06;19.30;86.70
22108;DHT22;11220;48.812;9.128;2023-11-19T07:41:32;18.70;86.30
22108;DHT22;11220;48.812;9.128;2023-11-19T07:43:58;18.70;86.90
22108;DHT22;11220;48.812;9.128;2023-11-19T07:46:23;18.70;86.40
22108;DHT22;11220;48.812;9.128;2023-11-19T07:48:50;18.60;86.30
22108;DHT22;11220;48.812;9.128;2023-11-19T07:51:16;18.70;86.40
22108;DHT22;11220;48.812;9.128;2023-11-19T07:53:41;18.70;86.40
22108;DHT22;11220;48.812;9.128;2023-11-19T07:56:08;18.70;86.40
22108;DHT22;11220;48.812;9.128;2023-11-19T07:58:33;18.70;86.40
22108;DHT22;11220;48.812;9.128;2023-11-19T08:01:00;18.70;86.40
22108;DHT22;11220;48.812;9.128;2023-11-19T08:03:27;18.70;86.40
22108;DHT22;11220;48.812;9.128;2023-11-19T08:05:55;18.70;86.40
22108;DHT22;11220;48.812;9.128;2023-11-19T08:08:21;18.70;86.40
22108;DHT22;11220;48.812;9.128;2023-11-19T08:10:47;18.70;86.30
22108;DHT22;11220;48.812;9.128;2023-11-19T08:13:13;18.70;86.30
22108;DHT22;11220;48.812;9.128;2023-11-19T08:15:39;18.70;86.30
22108;DHT22;11220;48.812;9.128;2023-11-19T08:18:05;18.70;86.30
22108;DHT22;11220;48.812;9.128;2023-11-19T08:20:32;18.80;86.30
22108;DHT22;11220;48.812;9.128;2023-11-19T08:22:58;18.80;86.30
22108;DHT22;11220;48.812;9.128;2023-11-19T08:25:23;18.80;86.20
22108;DHT22;11220;48.812;9.128;2023-11-19T08:27:49;19.80;86.80
22108;DHT22;11220;48.812;9.128;2023-11-19T08:30:14;18.80;86.20
22108;DHT22;11220;48.812;9.128;2023-11-19T08:32:40;18.80;86.10
22108;DHT22;11220;48.812;9.128;2023-11-19T08:35:06;18.80;86.10
22108;DHT22;11220;48.812;9.128;2023-11-19T08:37:31;18.90;86.10
22108;DHT22;11220;48.812;9.128;2023-11-19T08:39:57;18.90;86.10
22108;DHT22;11220;48.812;9.128;2023-11-19T08:42:23;18.90;86.00
22108;DHT22;11220;48.812;9.128;2023-11-19T08:44:49;18.90;86.00
22108;DHT22;11220;48.812;9.128;2023-11-19T08:47:16;18.90;86.00
22108;DHT22;11220;48.812;9.128;2023-11-19T08:49:43;18.90;86.00
22108;DHT22;11220;48.812;9.128;2023-11-19T08:52:09;18.90;86.00
22108;DHT22;11220;48.812;9.128;2023-11-19T08:54:36;18.90;86.00
22108;DHT22;11220;48.812;9.128;2023-11-19T08:57:01;18.90;86.00
22108;DHT22;11220;48.812;9.128;2023-11-19T08:59:28;18.90;86.00
22108;DHT22;11220;48.812;9.128;2023-11-19T09:01:54;18.90;86.10
22108;DHT22;11220;48.812;9.128;2023-11-19T09:04:19;18.90;86.10
22108;DHT22;11220;48.812;9.128;2023-11-19T09:06:47;19.70;86.60
22108;DHT22;11220;48.812;9.128;2023-11-19T09:09:13;19.70;86.70
22108;DHT22;11220;48.812;9.128;2023-11-19T09:11:39;18.90;86.20
22108;DHT22;11220;48.812;9.128;2023-11-19T09:14:04;18.90;86.30
22108;DHT22;11220;48.812;9.128;2023-11-19T09:16:30;18.90;86.40
22108;DHT22;11220;48.812;9.128;2023-11-19T09:18:55;19.00;86.50
22108;DHT22;11220;48.812;9.128;2023-11-19T09:21:21;18.90;86.50
22108;DHT22;11220;48.812;9.128;2023-11-19T09:23:47;18.90;86.50
22108;DHT22;11220;48.812;9.128;2023-11-19T09:26:14;19.00;86.60
22108;DHT22;11220;48.812;9.128;2023-11-19T09:28:40;18.90;86.70
22108;DHT22;11220;48.812;9.128;2023-11-19T09:31:15;19.70;87.20
22108;DHT22;11220;48.812;9.128;2023-11-19T09:33:41;18.90;86.70
22108;DHT22;11220;48.812;9.128;2023-11-19T09:36:07;18.90;86.70
22108;DHT22;11220;48.812;9.128;2023-11-19T09:38:32;18.90;86.80
22108;DHT22;11220;48.812;9.128;2023-11-19T09:41:01;18.90;86.90
22108;DHT22;11220;48.812;9.128;2023-11-19T09:43:27;18.90;86.90
22108;DHT22;11220;48.812;9.128;2023-11-19T09:45:55;19.00;87.00
22108;DHT22;11220;48.812;9.128;2023-11-19T09:48:21;18.90;87.10
22108;DHT22;11220;48.812;9.128;2023-11-19T09:50:50;18.90;87.00
22108;DHT22;11220;48.812;9.128;2023-11-19T09:53:17;19.30;87.20
22108;DHT22;11220;48.812;9.128;2023-11-19T09:55:43;19.00;87.00
22108;DHT22;11220;48.812;9.128;2023-11-19T09:58:10;18.90;87.00
22108;DHT22;11220;48.812;9.128;2023-11-19T10:00:36;19.00;87.10
22108;DHT22;11220;48.812;9.128;2023-11-19T10:03:02;19.00;87.00
22108;DHT22;11220;48.812;9.128;2023-11-19T10:05:30;19.00;87.00
22108;DHT22;11220;48.812;9.128;2023-11-19T10:07:56;19.00;87.00
22108;DHT22;11220;48.812;9.128;2023-11-19T10:10:21;18.90;86.90
22108;DHT22;11220;48.812;9.128;2023-11-19T10:12:47;19.00;86.90
22108;DHT22;11220;48.812;9.128;2023-11-19T10:15:21;18.90;86.80
22108;DHT22;11220;48.812;9.128;2023-11-19T10:17:59;19.10;86.90
22108;DHT22;11220;48.812;9.128;2023-11-19T10:20:24;19.00;86.90
22108;DHT22;11220;48.812;9.128;2023-11-19T10:22:54;19.00;86.90
22108;DHT22;11220;48.812;9.128;2023-11-19T10:25:24;19.10;87.10
22108;DHT22;11220;48.812;9.128;2023-11-19T10:27:50;19.10;87.20
22108;DHT22;11220;48.812;9.128;2023-11-19T10:30:21;19.00;87.30
22108;DHT22;11220;48.812;9.128;2023-11-19T10:35:27;20.10;88.20
22108;DHT22;11220;48.812;9.128;2023-11-19T10:37:53;19.20;87.80
22108;DHT22;11220;48.812;9.128;2023-11-19T10:40:18;19.10;87.70
22108;DHT22;11220;48.812;9.128;2023-11-19T10:42:44;19.10;87.70
22108;DHT22;11220;48.812;9.128;2023-11-19T10:45:23;19.10;87.80
22108;DHT22;11220;48.812;9.128;2023-11-19T10:47:52;19.20;87.90
22108;DHT22;11220;48.812;9.128;2023-11-19T10:50:18;19.40;88.00
22108;DHT22;11220;48.812;9.128;2023-11-19T10:52:44;19.30;87.90
22108;DHT22;11220;48.812;9.128;2023-11-19T10:55:11;20.00;88.50
22108;DHT22;11220;48.812;9.128;2023-11-19T10:57:43;18.20;87.40
22108;DHT22;11220;48.812;9.128;2023-11-19T11:00:13;20.10;88.60
22108;DHT22;11220;48.812;9.128;2023-11-19T11:02:41;19.20;87.90
22108;DHT22;11220;48.812;9.128;2023-11-19T11:05:12;20.00;88.20
22108;DHT22;11220;48.812;9.128;2023-11-19T11:07:39;19.80;88.20
22108;DHT22;11220;48.812;9.128;2023-11-19T11:10:07;20.20;88.30
22108;DHT22;11220;48.812;9.128;2023-11-19T11:12:36;19.20;87.80
22108;DHT22;11220;48.812;9.128;2023-11-19T11:15:04;20.40;88.60
22108;DHT22;11220;48.812;9.128;2023-11-19T11:17:32;19.20;87.70
22108;DHT22;11220;48.812;9.128;2023-11-19T11:19:58;20.50;88.70
22108;DHT22;11220;48.812;9.128;2023-11-19T11:22:25;19.00;87.60
22108;DHT22;11220;48.812;9.128;2023-11-19T11:28:49;19.20;87.60
22108;DHT22;11220;48.812;9.128;2023-11-19T11:31:15;19.20;87.60
22108;DHT22;11220;48.812;9.128;2023-11-19T11:34:07;18.80;87.50
22108;DHT22;11220;48.812;9.128;2023-11-19T11:39:33;19.10;87.60
22108;DHT22;11220;48.812;9.128;2023-11-19T11:45:14;18.50;87.10
22108;DHT22;11220;48.812;9.128;2023-11-19T11:50:13;19.30;88.40
22108;DHT22;11220;48.812;9.128;2023-11-19T11:53:18;19.30;87.60
22108;DHT22;11220;48.812;9.128;2023-11-19T11:58:18;19.30;87.60
22108;DHT22;11220;48.812;9.128;2023-11-19T12:00:46;19.40;87.60
22108;DHT22;11220;48.812;9.128;2023-11-19T12:03:12;19.40;87.60
22108;DHT22;11220;48.812;9.128;2023-11-19T12:05:42;19.40;87.50
22108;DHT22;11220;48.812;9.128;2023-11-19T12:08:09;19.40;87.40
22108;DHT22;11220;48.812;9.128;2023-11-19T12:10:43;19.50;87.30
22108;DHT22;11220;48.812;9.128;2023-11-19T12:13:09;19.50;87.10
22108;DHT22;11220;48.812;9.128;2023-11-19T12:18:23;19.50;86.90
22108;DHT22;11220;48.812;9.128;2023-11-19T12:20:50;19.60;86.70
22108;DHT22;11220;48.812;9.128;2023-11-19T12:23:15;19.80;86.70
22108;DHT22;11220;48.812;9.128;2023-11-19T12:25:41;19.60;86.50
22108;DHT22;11220;48.812;9.128;2023-11-19T12:28:12;19.60;86.30
22108;DHT22;11220;48.812;9.128;2023-11-19T12:30:38;19.70;86.40
22108;DHT22;11220;48.812;9.128;2023-11-19T12:33:08;19.70;86.30
22108;DHT22;11220;48.812;9.128;2023-11-19T12:35:42;20.60;86.80
22108;DHT22;11220;48.812;9.128;2023-11-19T12:38:17;19.70;86.10
22108;DHT22;11220;48.812;9.128;2023-11-19T12:40:43;19.70;86.00
22108;DHT22;11220;48.812;9.128;2023-11-19T12:43:09;19.70;85.90
22108;DHT22;11220;48.812;9.128;2023-11-19T12:45:36;19.70;85.90
22108;DHT22;11220;48.812;9.128;2023-11-19T12:48:06;19.70;85.80
22108;DHT22;11220;48.812;9.128;2023-11-19T12:50:55;19.80;85.80
22108;DHT22;11220;48.812;9.128;2023-11-19T12:53:22;19.80;85.70
22108;DHT22;11220;48.812;9.128;2023-11-19T12:55:48;19.80;85.60
22108;DHT22;11220;48.812;9.128;2023-11-19T12:58:32;19.80;85.50
22108;DHT22;11220;48.812;9.128;2023-11-19T13:01:05;19.80;85.50
22108;DHT22;11220;48.812;9.128;2023-11-19T13:03:32;19.90;85.50
22108;DHT22;11220;48.812;9.128;2023-11-19T13:06:06;20.10;85.60
22108;DHT22;11220;48.812;9.128;2023-11-19T13:08:47;19.90;85.40
22108;DHT22;11220;48.812;9.128;2023-11-19T13:11:35;19.90;85.40
22108;DHT22;11220;48.812;9.128;2023-11-19T13:14:03;19.90;85.50
22108;DHT22;11220;48.812;9.128;2023-11-19T13:16:30;19.80;85.30
22108;DHT22;11220;48.812;9.128;2023-11-19T13:18:56;19.90;85.50
22108;DHT22;11220;48.812;9.128;2023-11-19T13:21:22;19.90;85.40
22108;DHT22;11220;48.812;9.128;2023-11-19T13:23:48;19.90;85.40
22108;DHT22;11220;48.812;9.128;2023-11-19T13:26:14;20.00;86.50
22108;DHT22;11220;48.812;9.128;2023-11-19T13:28:39;20.50;86.00
22108;DHT22;11220;48.812;9.128;2023-11-19T13:31:05;19.90;85.80
22108;DHT22;11220;48.812;9.128;2023-11-19T13:33:31;19.90;85.60
22108;DHT22;11220;48.812;9.128;2023-11-19T13:35:57;21.70;86.70
22108;DHT22;11220;48.812;9.128;2023-11-19T13:38:22;19.90;85.60
22108;DHT22;11220;48.812;9.128;2023-11-19T13:40:49;19.90;86.40
22108;DHT22;11220;48.812;9.128;2023-11-19T13:43:15;20.40;85.50
22108;DHT22;11220;48.812;9.128;2023-11-19T13:45:41;21.40;86.20
22108;DHT22;11220;48.812;9.128;2023-11-19T13:48:06;20.30;85.60
22108;DHT22;11220;48.812;9.128;2023-11-19T13:50:34;19.90;85.50
22108;DHT22;11220;48.812;9.128;2023-11-19T13:52:59;19.90;85.20
22108;DHT22;11220;48.812;9.128;2023-11-19T13:55:25;20.10;85.70
22108;DHT22;11220;48.812;9.128;2023-11-19T13:57:51;19.90;85.30
22108;DHT22;11220;48.812;9.128;2023-11-19T14:00:17;20.70;86.10
22108;DHT22;11220;48.812;9.128;2023-11-19T14:02:46;19.90;85.30
22108;DHT22;11220;48.812;9.128;2023-11-19T14:05:13;19.80;85.10
22108;DHT22;11220;48.812;9.128;2023-11-19T14:07:39;20.10;85.30
22108;DHT22;11220;48.812;9.128;2023-11-19T14:10:06;20.40;85.50
22108;DHT22;11220;48.812;9.128;2023-11-19T14:12:32;19.90;85.20
22108;DHT22;11220;48.812;9.128;2023-11-19T14:14:58;19.90;85.40
22108;DHT22;11220;48.812;9.128;2023-11-19T14:17:25;20.60;85.70
22108;DHT22;11220;48.812;9.128;2023-11-19T14:19:51;20.60;85.80
22108;DHT22;11220;48.812;9.128;2023-11-19T14:22:17;20.50;85.90
22108;DHT22;11220;48.812;9.128;2023-11-19T14:24:42;20.90;85.80
22108;DHT22;11220;48.812;9.128;2023-11-19T14:27:09;20.70;85.60
22108;DHT22;11220;48.812;9.128;2023-11-19T14:29:35;20.00;85.10
22108;DHT22;11220;48.812;9.128;2023-11-19T14:32:01;20.00;85.10
22108;DHT22;11220;48.812;9.128;2023-11-19T14:34:27;21.00;86.70
22108;DHT22;11220;48.812;9.128;2023-11-19T14:36:53;19.90;83.60
22108;DHT22;11220;48.812;9.128;2023-11-19T14:39:19;19.90;83.70
22108;DHT22;11220;48.812;9.128;2023-11-19T14:41:45;19.90;84.50
22108;DHT22;11220;48.812;9.128;2023-11-19T14:44:10;20.20;84.80
22108;DHT22;11220;48.812;9.128;2023-11-19T14:46:36;19.90;84.70
22108;DHT22;11220;48.812;9.128;2023-11-19T14:49:02;20.10;84.40
22108;DHT22;11220;48.812;9.128;2023-11-19T14:51:29;19.80;83.60
22108;DHT22;11220;48.812;9.128;2023-11-19T14:53:55;19.80;84.20
22108;DHT22;11220;48.812;9.128;2023-11-19T14:56:20;19.80;84.50
22108;DHT22;11220;48.812;9.128;2023-11-19T14:58:47;20.50;85.20
22108;DHT22;11220;48.812;9.128;2023-11-19T15:01:13;20.80;85.60
22108;DHT22;11220;48.812;9.128;2023-11-19T15:03:39;20.80;85.40
22108;DHT22;11220;48.812;9.128;2023-11-19T15:06:05;19.80;85.10
22108;DHT22;11220;48.812;9.128;2023-11-19T15:08:33;19.70;84.90
22108;DHT22;11220;48.812;9.128;2023-11-19T15:10:59;19.60;85.40
22108;DHT22;11220;48.812;9.128;2023-11-19T15:13:27;20.50;85.70
22108;DHT22;11220;48.812;9.128;2023-11-19T15:15:53;20.40;85.30
22108;DHT22;11220;48.812;9.128;2023-11-19T15:18:18;19.90;85.10
22108;DHT22;11220;48.812;9.128;2023-11-19T15:20:45;19.70;85.20
22108;DHT22;11220;48.812;9.128;2023-11-19T15:23:16;19.60;85.00
22108;DHT22;11220;48.812;9.128;2023-11-19T15:25:45;19.70;84.80
22108;DHT22;11220;48.812;9.128;2023-11-19T15:28:10;20.00;85.10
22108;DHT22;11220;48.812;9.128;2023-11-19T15:30:37;20.10;85.20
22108;DHT22;11220;48.812;9.128;2023-11-19T15:33:02;20.70;85.80
22108;DHT22;11220;48.812;9.128;2023-11-19T15:35:28;20.70;85.50
22108;DHT22;11220;48.812;9.128;2023-11-19T15:37:53;19.60;85.30
22108;DHT22;11220;48.812;9.128;2023-11-19T15:40:21;19.50;85.00
22108;DHT22;11220;48.812;9.128;2023-11-19T15:42:46;20.00;85.30
22108;DHT22;11220;48.812;9.128;2023-11-19T15:45:13;20.00;85.20
22108;DHT22;11220;48.812;9.128;2023-11-19T15:47:38;19.70;85.10